Date,TemperatureHighF,TemperatureAvgF,TemperatureLowF,DewpointHighF,DewpointAvgF,DewpointLowF,HumidityHigh,HumidityAvg,HumidityLow,PressureMaxIn,PressureMinIn,WindSpeedMaxMPH,WindSpeedAvgMPH,GustSpeedMaxMPH,PrecipitationSumIn
2013-2-1,52,43,30,29,19,7,59,41,16,30.42,30.17,19,1,19,0.00
2013-2-2,57,40,24,35,17,9,70,43,17,30.44,30.15,12,1,13,0.00
2013-2-3,62,48,38,37,31,23,82,55,27,30.15,29.97,20,1,20,0.00
2013-2-4,51,41,32,32,28,24,82,60,35,30.20,30.09,8,0,8,0.00
2013-2-5,66,50,35,47,38,29,86,67,42,30.11,30.00,16,1,16,0.00
2013-2-6,73,55,44,51,39,27,96,62,21,30.21,30.06,10,0,10,0.01
2013-2-7,50,47,44,48,44,35,97,89,60,30.21,29.90,8,1,17,1.67
2013-2-8,63,49,42,49,45,41,96,85,59,30.16,29.90,16,1,16,0.00
2013-2-9,66,47,33,43,30,20,90,57,20,30.37,30.15,7,0,7,0.00
2013-2-10,67,51,36,54,41,30,93,70,49,30.45,30.18,21,1,21,0.18
2013-2-11,69,59,54,62,57,53,98,93,78,30.25,30.08,19,3,19,0.91
2013-2-12,66,55,48,53,48,39,96,82,41,30.18,29.92,8,0,8,0.74
2013-2-13,57,50,46,55,48,40,98,90,70,29.95,29.77,20,2,20,0.10
2013-2-14,53,44,37,40,37,34,92,78,55,30.14,29.94,10,0,10,0.00
2013-2-15,65,46,32,45,34,29,97,69,26,30.18,29.99,12,0,12,0.01
2013-2-16,48,41,33,40,30,13,92,67,34,30.14,29.89,18,0,18,0.15
2013-2-17,48,35,25,19,14,7,63,44,20,30.37,30.14,19,0,19,0.00
2013-2-18,59,40,24,26,21,15,86,51,24,30.47,30.29,16,1,16,0.00
2013-2-19,52,44,36,50,39,26,96,83,59,30.29,30.03,14,1,14,0.25
2013-2-20,59,44,30,34,26,17,78,52,21,30.22,30.11,14,0,14,0.00
2013-2-21,68,49,32,36,29,22,84,50,22,30.25,30.10,7,0,7,0.00
2013-2-22,51,43,40,41,39,31,97,86,50,30.24,30.14,10,0,10,0.56
2013-2-23,46,42,38,45,42,38,98,98,97,30.14,29.88,7,0,7,0.46
2013-2-24,71,53,43,51,42,33,99,75,26,30.06,29.93,11,0,11,0.01
2013-2-25,47,44,39,42,36,30,90,73,53,30.14,29.99,16,1,16,0.00
2013-2-26,58,46,38,57,45,36,99,95,90,30.01,29.60,13,0,13,0.92
2013-2-27,62,49,40,44,38,34,93,67,40,29.93,29.81,19,3,19,0.00
2013-2-28,57,47,39,40,33,27,78,59,40,29.98,29.84,22,1,22,0.00